Time;durP1;ratioP1;P1;durP2;ratioP2;P2;SDS_P1;SDS_P2;PMS_P1;PMS_P2;Temp;Humidity;BMP_temperature;BMP_pressure;BME280_temperature;BME280_humidity;BME280_pressure;Samples;Min_cycle;Max_cycle;Signal;HPM_P1;HPM_P2
2023/05/07 00:01:36;;;;;;;;;;;21.30;74.10;;;;;;5053476;28;19931;-17
2023/05/07 00:04:03;;;;;;;;;;;21.30;74.10;;;;;;5053746;28;19920;-16
2023/05/07 00:06:29;;;;;;;;;;;21.30;74.10;;;;;;5052971;28;20027;-16
2023/05/07 00:08:56;;;;;;;;;;;21.30;74.10;;;;;;5068190;28;20011;-15
2023/05/07 00:11:21;;;;;;;;;;;21.30;74.10;;;;;;5052756;28;20027;-16
2023/05/07 00:13:48;;;;;;;;;;;21.30;74.10;;;;;;5051665;28;20134;-17
2023/05/07 00:16:13;;;;;;;;;;;21.30;74.20;;;;;;5051985;28;19924;-15
2023/05/07 00:18:39;;;;;;;;;;;21.30;74.20;;;;;;5050554;28;19916;-16
2023/05/07 00:21:05;;;;;;;;;;;21.30;74.20;;;;;;5051610;28;19909;-16
2023/05/07 00:23:30;;;;;;;;;;;21.20;74.10;;;;;;5052902;28;19959;-15
2023/05/07 00:25:56;;;;;;;;;;;21.20;74.20;;;;;;5054058;28;20015;-15
2023/05/07 00:28:22;;;;;;;;;;;21.20;74.10;;;;;;5053605;28;19909;-16
2023/05/07 00:30:47;;;;;;;;;;;21.20;74.10;;;;;;5054348;28;19913;-17
2023/05/07 00:33:13;;;;;;;;;;;21.20;74.10;;;;;;5054847;28;19909;-18
2023/05/07 00:35:38;;;;;;;;;;;21.20;74.20;;;;;;5054117;28;19935;-17
2023/05/07 00:38:04;;;;;;;;;;;21.20;74.10;;;;;;5053934;28;19909;-17
2023/05/07 00:40:30;;;;;;;;;;;21.20;74.20;;;;;;5054450;28;19913;-15
2023/05/07 00:42:57;;;;;;;;;;;21.20;74.10;;;;;;5055311;28;19919;-15
2023/05/07 00:45:26;;;;;;;;;;;21.20;74.10;;;;;;5055244;28;19917;-14
2023/05/07 00:47:53;;;;;;;;;;;21.20;74.20;;;;;;5054723;28;19912;-15
2023/05/07 00:50:19;;;;;;;;;;;21.10;74.10;;;;;;5054435;28;19944;-16
2023/05/07 00:52:45;;;;;;;;;;;21.20;74.10;;;;;;5053832;28;19920;-16
2023/05/07 00:55:11;;;;;;;;;;;21.20;74.20;;;;;;5054827;28;19909;-18
2023/05/07 00:57:39;;;;;;;;;;;21.10;74.00;;;;;;5054356;28;19909;-16
2023/05/07 01:00:05;;;;;;;;;;;21.10;74.10;;;;;;5054871;28;19909;-15
2023/05/07 01:02:30;;;;;;;;;;;21.10;74.10;;;;;;5054694;28;20073;-16
2023/05/07 01:04:56;;;;;;;;;;;21.10;74.00;;;;;;5053914;28;19912;-16
2023/05/07 01:07:23;;;;;;;;;;;21.10;74.00;;;;;;5054148;28;19912;-17
2023/05/07 01:09:49;;;;;;;;;;;21.10;74.10;;;;;;5055239;28;19909;-21
2023/05/07 01:12:15;;;;;;;;;;;21.10;74.10;;;;;;5053706;28;20202;-18
2023/05/07 01:14:40;;;;;;;;;;;21.10;74.10;;;;;;5054362;28;20193;-17
2023/05/07 01:17:06;;;;;;;;;;;21.10;74.00;;;;;;5053999;28;19924;-16
2023/05/07 01:19:32;;;;;;;;;;;21.10;74.00;;;;;;5052566;28;19969;-16
2023/05/07 01:22:02;;;;;;;;;;;21.10;74.10;;;;;;5053462;28;20082;-16
2023/05/07 01:24:28;;;;;;;;;;;21.10;74.10;;;;;;5052310;28;19917;-18
2023/05/07 01:26:53;;;;;;;;;;;21.00;74.00;;;;;;5054182;28;19913;-20
2023/05/07 01:29:19;;;;;;;;;;;21.10;74.00;;;;;;5054119;28;20168;-15
2023/05/07 01:31:44;;;;;;;;;;;21.00;74.00;;;;;;5052855;28;20001;-18
2023/05/07 01:34:11;;;;;;;;;;;21.00;74.00;;;;;;5052225;28;19934;-16
2023/05/07 01:36:38;;;;;;;;;;;21.00;74.00;;;;;;5053874;28;19908;-14
2023/05/07 01:39:05;;;;;;;;;;;21.00;74.00;;;;;;5052031;28;20321;-17
2023/05/07 01:41:31;;;;;;;;;;;21.00;74.00;;;;;;5051679;28;19908;-18
2023/05/07 01:43:58;;;;;;;;;;;21.00;74.00;;;;;;5053608;28;19917;-16
2023/05/07 01:46:24;;;;;;;;;;;21.00;74.00;;;;;;5053108;28;19924;-16
2023/05/07 01:48:50;;;;;;;;;;;21.00;74.00;;;;;;5052471;28;20149;-15
2023/05/07 01:51:15;;;;;;;;;;;21.00;74.00;;;;;;5051806;28;19913;-17
2023/05/07 01:53:41;;;;;;;;;;;21.00;74.00;;;;;;5053528;28;19996;-15
2023/05/07 01:56:07;;;;;;;;;;;21.00;74.00;;;;;;5053051;28;19909;-17
2023/05/07 01:58:33;;;;;;;;;;;21.00;74.00;;;;;;5053143;28;19909;-16
2023/05/07 02:00:58;;;;;;;;;;;20.90;73.90;;;;;;5052668;28;19916;-17
2023/05/07 02:03:24;;;;;;;;;;;20.90;73.90;;;;;;5052926;28;19919;-15
2023/05/07 02:05:49;;;;;;;;;;;20.90;73.90;;;;;;5053205;28;20172;-18
2023/05/07 02:08:15;;;;;;;;;;;20.90;73.90;;;;;;5052968;28;19916;-14
2023/05/07 02:10:41;;;;;;;;;;;20.90;73.90;;;;;;5051639;28;19996;-16
2023/05/07 02:13:06;;;;;;;;;;;20.90;73.90;;;;;;5051411;28;20115;-15
2023/05/07 02:15:32;;;;;;;;;;;20.90;73.90;;;;;;5051625;28;20003;-14
2023/05/07 02:18:06;;;;;;;;;;;20.90;73.90;;;;;;5050197;28;19913;-16
2023/05/07 02:20:31;;;;;;;;;;;20.90;74.00;;;;;;5049325;28;19909;-17
2023/05/07 02:22:57;;;;;;;;;;;20.90;74.00;;;;;;5050460;28;19919;-16
2023/05/07 02:25:23;;;;;;;;;;;20.90;74.00;;;;;;5050309;28;20329;-17
2023/05/07 02:27:48;;;;;;;;;;;20.90;74.00;;;;;;5051918;28;20282;-17
2023/05/07 02:30:14;;;;;;;;;;;20.90;74.00;;;;;;5050589;28;19909;-16
2023/05/07 02:32:40;;;;;;;;;;;20.90;74.00;;;;;;5052761;28;19974;-15
2023/05/07 02:35:06;;;;;;;;;;;20.80;74.00;;;;;;5056156;28;19921;-15
2023/05/07 02:37:31;;;;;;;;;;;20.80;74.00;;;;;;5055785;28;20090;-16
2023/05/07 02:39:57;;;;;;;;;;;20.80;74.00;;;;;;5055316;28;19946;-17
2023/05/07 02:42:22;;;;;;;;;;;20.80;74.00;;;;;;5056472;28;19920;-14
2023/05/07 02:44:48;;;;;;;;;;;20.80;74.00;;;;;;5055985;28;19905;-16
2023/05/07 02:47:15;;;;;;;;;;;20.80;74.10;;;;;;5056393;28;19913;-15
2023/05/07 02:49:40;;;;;;;;;;;20.80;74.10;;;;;;5055794;28;19919;-16
2023/05/07 02:52:06;;;;;;;;;;;20.80;74.10;;;;;;5057856;28;19917;-15
2023/05/07 02:54:32;;;;;;;;;;;20.80;74.10;;;;;;5056504;28;20007;-17
2023/05/07 02:56:58;;;;;;;;;;;20.80;74.10;;;;;;5054484;28;19944;-17
2023/05/07 02:59:25;;;;;;;;;;;20.80;74.20;;;;;;5055756;28;19917;-13
2023/05/07 03:01:50;;;;;;;;;;;20.70;74.10;;;;;;5056204;28;19916;-14
2023/05/07 03:04:16;;;;;;;;;;;20.70;74.10;;;;;;5057174;28;19909;-17
2023/05/07 03:06:41;;;;;;;;;;;20.70;74.10;;;;;;5056809;28;19991;-15
2023/05/07 03:09:07;;;;;;;;;;;20.70;74.10;;;;;;5057263;28;20258;-14
2023/05/07 03:11:33;;;;;;;;;;;20.70;74.10;;;;;;5057493;28;19952;-17
2023/05/07 03:13:58;;;;;;;;;;;20.70;74.10;;;;;;5056251;28;19912;-17
2023/05/07 03:16:24;;;;;;;;;;;20.70;74.20;;;;;;5082463;22;19924;-16
2023/05/07 03:18:49;;;;;;;;;;;20.70;74.20;;;;;;5097475;28;19945;-21
2023/05/07 03:21:15;;;;;;;;;;;20.60;74.10;;;;;;5098004;28;19912;-15
2023/05/07 03:23:41;;;;;;;;;;;20.60;74.10;;;;;;5097518;28;19919;-15
2023/05/07 03:26:06;;;;;;;;;;;20.60;74.10;;;;;;5078884;28;19916;-15
2023/05/07 03:28:32;;;;;;;;;;;20.60;74.10;;;;;;5079129;28;20207;-14
2023/05/07 03:30:57;;;;;;;;;;;20.60;74.10;;;;;;5096172;28;19912;-14
2023/05/07 03:33:23;;;;;;;;;;;20.60;74.10;;;;;;5095447;28;19908;-15
2023/05/07 03:35:49;;;;;;;;;;;20.60;74.20;;;;;;5077950;28;19918;-16
2023/05/07 03:38:14;;;;;;;;;;;20.60;74.20;;;;;;5076397;28;19964;-16
2023/05/07 03:40:40;;;;;;;;;;;20.60;74.20;;;;;;5076998;28;19939;-23
2023/05/07 03:43:06;;;;;;;;;;;20.60;74.20;;;;;;5077041;28;20018;-16
2023/05/07 03:45:31;;;;;;;;;;;20.60;74.20;;;;;;5094632;28;19908;-16
2023/05/07 03:47:57;;;;;;;;;;;20.60;74.20;;;;;;5095968;28;19967;-14
2023/05/07 03:50:22;;;;;;;;;;;20.60;74.30;;;;;;5096214;28;20002;-15
2023/05/07 03:52:48;;;;;;;;;;;20.60;74.20;;;;;;5096548;28;19916;-16
2023/05/07 03:55:13;;;;;;;;;;;20.60;74.20;;;;;;5096720;28;19929;-15
2023/05/07 03:57:41;;;;;;;;;;;20.60;74.30;;;;;;5077525;28;21117;-16
2023/05/07 04:00:07;;;;;;;;;;;20.60;74.30;;;;;;5096243;28;19914;-17
2023/05/07 04:02:33;;;;;;;;;;;20.50;74.20;;;;;;5095095;28;19904;-16
2023/05/07 04:04:58;;;;;;;;;;;20.50;74.20;;;;;;5076644;28;20535;-14
2023/05/07 04:07:24;;;;;;;;;;;20.50;74.20;;;;;;5094215;28;19951;-17
2023/05/07 04:09:50;;;;;;;;;;;20.50;74.20;;;;;;5076096;28;19919;-15
2023/05/07 04:12:15;;;;;;;;;;;20.50;74.20;;;;;;5093717;28;19961;-13
2023/05/07 04:14:41;;;;;;;;;;;20.50;74.10;;;;;;5094101;28;19919;-16
2023/05/07 04:17:09;;;;;;;;;;;20.50;74.10;;;;;;5093514;28;19943;-15
2023/05/07 04:19:35;;;;;;;;;;;20.50;74.10;;;;;;5094530;28;19916;-14
2023/05/07 04:22:00;;;;;;;;;;;20.50;74.10;;;;;;5095424;28;19923;-16
2023/05/07 04:24:26;;;;;;;;;;;20.50;74.10;;;;;;5094609;28;19951;-14
2023/05/07 04:26:52;;;;;;;;;;;20.50;74.00;;;;;;5094434;28;20021;-15
2023/05/07 04:29:18;;;;;;;;;;;20.50;74.00;;;;;;5076211;28;20002;-17
2023/05/07 04:31:44;;;;;;;;;;;20.50;74.00;;;;;;5094277;28;19914;-16
2023/05/07 04:34:14;;;;;;;;;;;20.50;73.90;;;;;;5075654;28;19919;-13
2023/05/07 04:36:39;;;;;;;;;;;20.50;73.80;;;;;;5093742;28;19908;-16
2023/05/07 04:39:06;;;;;;;;;;;20.50;73.70;;;;;;5093125;28;19938;-17
2023/05/07 04:41:31;;;;;;;;;;;20.50;73.70;;;;;;5075620;28;20154;-15
2023/05/07 04:43:58;;;;;;;;;;;20.50;73.60;;;;;;5094534;28;20182;-16
2023/05/07 04:46:24;;;;;;;;;;;20.50;73.50;;;;;;5093732;28;19952;-15
2023/05/07 04:48:50;;;;;;;;;;;20.60;73.50;;;;;;5077020;28;19947;-14
2023/05/07 04:51:16;;;;;;;;;;;20.60;73.30;;;;;;5076806;28;19951;-18
2023/05/07 04:53:42;;;;;;;;;;;20.60;73.20;;;;;;5094986;28;19998;-14
2023/05/07 04:56:08;;;;;;;;;;;20.60;73.10;;;;;;5076173;28;20123;-16
2023/05/07 04:58:34;;;;;;;;;;;20.60;72.90;;;;;;5076223;28;20280;-14
2023/05/07 05:01:00;;;;;;;;;;;20.60;72.80;;;;;;5095142;28;19919;-16
2023/05/07 05:03:25;;;;;;;;;;;20.60;72.70;;;;;;5094385;28;19916;-15
2023/05/07 05:05:52;;;;;;;;;;;20.60;72.50;;;;;;5076908;28;19912;-14
2023/05/07 05:08:17;;;;;;;;;;;20.70;72.50;;;;;;5093088;28;20251;-15
2023/05/07 05:10:43;;;;;;;;;;;20.60;72.30;;;;;;5093980;28;19908;-14
2023/05/07 05:13:09;;;;;;;;;;;20.70;72.80;;;;;;5074929;28;20288;-15
2023/05/07 05:15:35;;;;;;;;;;;20.70;72.10;;;;;;5093070;28;20039;-14
2023/05/07 05:18:00;;;;;;;;;;;20.70;71.90;;;;;;5093064;28;20285;-15
2023/05/07 05:20:26;;;;;;;;;;;20.80;71.70;;;;;;5075400;28;19909;-16
2023/05/07 05:22:52;;;;;;;;;;;20.80;71.50;;;;;;5094174;28;20046;-15
2023/05/07 05:25:17;;;;;;;;;;;20.80;71.40;;;;;;5075439;28;19912;-16
2023/05/07 05:27:43;;;;;;;;;;;20.80;71.30;;;;;;5093094;28;19912;-13
2023/05/07 05:30:09;;;;;;;;;;;20.80;71.10;;;;;;5093933;28;20185;-14
2023/05/07 05:32:34;;;;;;;;;;;20.80;71.00;;;;;;5076451;28;20174;-16
2023/05/07 05:35:00;;;;;;;;;;;20.80;70.90;;;;;;5076021;28;19912;-16
2023/05/07 05:37:26;;;;;;;;;;;20.90;70.90;;;;;;5093441;28;20235;-16
2023/05/07 05:39:52;;;;;;;;;;;20.90;70.70;;;;;;5075103;28;19938;-17
2023/05/07 05:42:18;;;;;;;;;;;20.90;70.40;;;;;;5093405;28;20330;-15
2023/05/07 05:44:43;;;;;;;;;;;21.00;70.20;;;;;;5093590;28;19916;-16
2023/05/07 05:47:09;;;;;;;;;;;21.00;70.00;;;;;;5075852;28;20213;-16
2023/05/07 05:49:35;;;;;;;;;;;21.10;69.60;;;;;;5075611;28;19908;-15
2023/05/07 05:52:00;;;;;;;;;;;21.20;69.40;;;;;;5092704;28;19908;-16
2023/05/07 05:54:26;;;;;;;;;;;21.20;69.20;;;;;;5092808;28;19976;-14
2023/05/07 05:56:51;;;;;;;;;;;21.20;69.20;;;;;;5092072;28;19908;-12
2023/05/07 05:59:17;;;;;;;;;;;21.30;68.90;;;;;;5072462;28;19912;-14
2023/05/07 06:01:43;;;;;;;;;;;21.30;68.70;;;;;;5073264;28;20175;-16
2023/05/07 06:04:08;;;;;;;;;;;21.40;68.30;;;;;;5073775;28;19908;-14
2023/05/07 06:06:34;;;;;;;;;;;21.40;67.90;;;;;;5075215;28;19912;-15
2023/05/07 06:08:59;;;;;;;;;;;21.50;67.70;;;;;;5095861;28;19980;-18
2023/05/07 06:11:25;;;;;;;;;;;21.50;67.40;;;;;;5078557;28;19919;-13
2023/05/07 06:13:51;;;;;;;;;;;21.50;67.10;;;;;;5079508;28;19931;-17
2023/05/07 06:16:16;;;;;;;;;;;21.60;66.80;;;;;;5079172;28;20409;-15
2023/05/07 06:18:42;;;;;;;;;;;21.60;66.70;;;;;;5079017;28;20365;-15
2023/05/07 06:21:08;;;;;;;;;;;21.60;66.40;;;;;;5077912;28;19977;-17
2023/05/07 06:23:33;;;;;;;;;;;21.70;66.40;;;;;;5096775;28;19909;-15
2023/05/07 06:25:59;;;;;;;;;;;21.70;66.40;;;;;;5078638;28;19908;-15
2023/05/07 06:28:24;;;;;;;;;;;21.70;66.30;;;;;;5096294;28;20153;-15
2023/05/07 06:30:50;;;;;;;;;;;21.70;66.10;;;;;;5095358;28;19950;-16
2023/05/07 06:33:16;;;;;;;;;;;21.70;66.10;;;;;;5076680;28;19916;-16
2023/05/07 06:35:41;;;;;;;;;;;21.80;66.00;;;;;;5075993;28;20266;-15
2023/05/07 06:38:07;;;;;;;;;;;21.80;66.00;;;;;;5093138;28;20400;-17
2023/05/07 06:40:33;;;;;;;;;;;21.80;66.00;;;;;;5094634;28;20209;-16
2023/05/07 06:42:58;;;;;;;;;;;21.80;66.00;;;;;;5093725;28;19908;-17
2023/05/07 06:45:25;;;;;;;;;;;21.80;66.00;;;;;;5093445;28;19909;-16
2023/05/07 06:47:50;;;;;;;;;;;21.80;66.00;;;;;;5094511;28;19923;-15
2023/05/07 06:50:16;;;;;;;;;;;21.80;65.90;;;;;;5092976;28;19912;-16
2023/05/07 06:52:42;;;;;;;;;;;21.80;65.80;;;;;;5093541;28;20186;-16
2023/05/07 06:55:08;;;;;;;;;;;21.80;65.90;;;;;;5092882;28;20007;-16
2023/05/07 06:57:34;;;;;;;;;;;21.80;65.70;;;;;;5074250;28;19908;-17
2023/05/07 07:00:00;;;;;;;;;;;21.90;65.60;;;;;;5074059;28;19919;-14
2023/05/07 07:02:25;;;;;;;;;;;21.90;65.30;;;;;;5093350;28;20010;-16
2023/05/07 07:04:51;;;;;;;;;;;22.00;65.10;;;;;;5074498;28;19908;-17
2023/05/07 07:07:17;;;;;;;;;;;22.10;64.70;;;;;;5076706;28;20204;-16
2023/05/07 07:09:42;;;;;;;;;;;22.20;65.00;;;;;;5094041;28;19915;-16
2023/05/07 07:12:08;;;;;;;;;;;22.20;64.20;;;;;;5072930;28;19912;-23
2023/05/07 07:14:33;;;;;;;;;;;22.30;64.40;;;;;;5074027;28;20211;-14
2023/05/07 07:16:59;;;;;;;;;;;22.40;63.90;;;;;;5085628;28;20273;-17
2023/05/07 07:19:25;;;;;;;;;;;22.50;63.50;;;;;;5089520;28;19908;-16
2023/05/07 07:21:51;;;;;;;;;;;22.60;63.40;;;;;;5108279;28;19979;-16
2023/05/07 07:24:20;;;;;;;;;;;22.60;63.10;;;;;;5088503;28;20359;-14
2023/05/07 07:26:46;;;;;;;;;;;22.60;63.10;;;;;;5071710;28;19958;-16
2023/05/07 07:29:12;;;;;;;;;;;22.60;62.80;;;;;;5077984;28;20055;-17
2023/05/07 07:31:37;;;;;;;;;;;22.60;63.00;;;;;;5071009;28;20254;-16
2023/05/07 07:34:03;;;;;;;;;;;22.50;62.80;;;;;;5071374;28;19918;-17
2023/05/07 07:36:29;;;;;;;;;;;22.50;63.20;;;;;;5072056;28;19909;-14
2023/05/07 07:38:55;;;;;;;;;;;22.40;63.70;;;;;;5070021;28;19999;-16
2023/05/07 07:41:21;;;;;;;;;;;22.40;63.50;;;;;;5070930;28;20024;-16
2023/05/07 07:43:47;;;;;;;;;;;22.40;63.90;;;;;;5071750;28;19995;-16
2023/05/07 07:46:12;;;;;;;;;;;22.40;64.00;;;;;;5071641;28;19908;-16
2023/05/07 07:48:38;;;;;;;;;;;22.40;63.90;;;;;;5072343;28;19965;-15
2023/05/07 07:51:04;;;;;;;;;;;22.40;63.80;;;;;;5070714;28;19909;-16
2023/05/07 07:53:30;;;;;;;;;;;22.50;63.40;;;;;;5069726;28;20166;-17
2023/05/07 07:55:55;;;;;;;;;;;22.60;63.20;;;;;;5069629;28;19908;-15
2023/05/07 07:58:21;;;;;;;;;;;22.60;63.00;;;;;;5069824;28;19919;-16
2023/05/07 08:00:47;;;;;;;;;;;22.60;63.30;;;;;;5069977;28;20175;-15
2023/05/07 08:03:14;;;;;;;;;;;22.60;63.30;;;;;;5072038;28;19909;-17
2023/05/07 08:05:39;;;;;;;;;;;22.60;63.40;;;;;;5068195;28;19908;-15
2023/05/07 08:08:05;;;;;;;;;;;22.60;63.10;;;;;;5072332;28;20130;-16
2023/05/07 08:10:34;;;;;;;;;;;22.60;63.40;;;;;;5070703;28;20274;-16
2023/05/07 08:13:00;;;;;;;;;;;22.60;64.00;;;;;;5070019;28;19919;-15
2023/05/07 08:15:25;;;;;;;;;;;22.70;63.40;;;;;;5072491;28;20190;-16
2023/05/07 08:17:51;;;;;;;;;;;22.70;63.30;;;;;;5054379;28;19920;-15
2023/05/07 08:20:17;;;;;;;;;;;22.80;63.00;;;;;;5054895;28;19952;-14
2023/05/07 08:22:42;;;;;;;;;;;23.00;62.60;;;;;;5073140;28;19944;-13
2023/05/07 08:25:08;;;;;;;;;;;23.10;62.10;;;;;;5072339;28;19909;-13
2023/05/07 08:27:34;;;;;;;;;;;23.20;61.60;;;;;;5072248;28;19912;-16
2023/05/07 08:30:00;;;;;;;;;;;23.30;61.40;;;;;;5053651;28;20095;-16
2023/05/07 08:32:25;;;;;;;;;;;23.40;61.10;;;;;;5070586;28;19916;-16
2023/05/07 08:34:51;;;;;;;;;;;23.30;61.10;;;;;;5071028;28;19909;-14
2023/05/07 08:37:17;;;;;;;;;;;23.40;61.00;;;;;;5053212;28;19994;-16
2023/05/07 08:39:42;;;;;;;;;;;23.50;60.70;;;;;;5068993;28;19916;-17
2023/05/07 08:42:09;;;;;;;;;;;23.80;60.40;;;;;;5051322;28;19959;-16
2023/05/07 08:44:35;;;;;;;;;;;24.60;59.30;;;;;;5050297;28;19915;-15
2023/05/07 08:47:01;;;;;;;;;;;25.60;57.80;;;;;;5049817;28;19912;-17
2023/05/07 08:49:27;;;;;;;;;;;26.10;56.40;;;;;;5070508;28;20193;-14
2023/05/07 08:51:53;;;;;;;;;;;26.00;56.00;;;;;;5071604;28;19919;-17
2023/05/07 08:54:20;;;;;;;;;;;25.70;56.30;;;;;;5070917;28;19912;-17
2023/05/07 08:56:46;;;;;;;;;;;25.40;56.40;;;;;;5069487;28;19909;-16
2023/05/07 08:59:11;;;;;;;;;;;25.20;56.60;;;;;;5070644;28;20209;-17
2023/05/07 09:01:38;;;;;;;;;;;25.10;57.00;;;;;;5052962;28;20010;-16
2023/05/07 09:04:04;;;;;;;;;;;25.30;57.10;;;;;;5067901;28;19994;-15
2023/05/07 09:06:30;;;;;;;;;;;25.50;56.70;;;;;;5050642;28;20245;-17
2023/05/07 09:08:55;;;;;;;;;;;25.70;56.50;;;;;;5050827;28;20061;-16
2023/05/07 09:11:22;;;;;;;;;;;26.30;55.90;;;;;;5067630;28;20355;-17
2023/05/07 09:13:48;;;;;;;;;;;26.40;55.60;;;;;;5050706;28;19909;-15
2023/05/07 09:16:14;;;;;;;;;;;26.30;55.50;;;;;;5055186;28;19927;-17
2023/05/07 09:18:43;;;;;;;;;;;27.00;55.50;;;;;;5068794;28;19920;-17
2023/05/07 09:21:09;;;;;;;;;;;27.60;54.40;;;;;;5068663;28;20198;-13
2023/05/07 09:23:35;;;;;;;;;;;27.60;54.00;;;;;;5069534;28;20187;-14
2023/05/07 09:26:02;;;;;;;;;;;28.00;53.70;;;;;;5067699;28;19943;-17
2023/05/07 09:28:27;;;;;;;;;;;27.90;53.50;;;;;;5069662;28;19938;-16
2023/05/07 09:30:53;;;;;;;;;;;28.50;53.00;;;;;;5069826;28;19908;-16
2023/05/07 09:33:18;;;;;;;;;;;28.40;52.90;;;;;;5067206;28;20257;-17
2023/05/07 09:35:44;;;;;;;;;;;28.70;52.80;;;;;;5068997;28;19939;-18
2023/05/07 09:38:10;;;;;;;;;;;28.90;52.30;;;;;;5069561;28;20290;-15
2023/05/07 09:40:35;;;;;;;;;;;29.10;52.30;;;;;;5068551;28;20194;-18
2023/05/07 09:43:11;;;;;;;;;;;29.70;51.80;;;;;;5071587;28;20285;-17
2023/05/07 09:45:37;;;;;;;;;;;30.10;51.30;;;;;;5074346;28;20293;-15
2023/05/07 09:48:04;;;;;;;;;;;30.30;50.80;;;;;;5073752;28;19920;-15
2023/05/07 09:50:32;;;;;;;;;;;30.00;50.80;;;;;;5072997;28;19961;-15
2023/05/07 09:52:58;;;;;;;;;;;30.10;51.00;;;;;;5072882;28;19948;-17
2023/05/07 09:55:25;;;;;;;;;;;30.30;50.80;;;;;;5070329;28;19987;-16
2023/05/07 09:57:52;;;;;;;;;;;30.40;50.60;;;;;;5069274;28;19915;-15
2023/05/07 10:00:21;;;;;;;;;;;29.90;50.70;;;;;;5071941;28;20063;-16
2023/05/07 10:02:51;;;;;;;;;;;29.60;51.10;;;;;;5069611;28;19916;-18
2023/05/07 10:05:19;;;;;;;;;;;29.10;51.30;;;;;;5070806;28;19955;-16
2023/05/07 10:07:44;;;;;;;;;;;28.60;52.70;;;;;;5072083;28;19920;-16
2023/05/07 10:10:10;;;;;;;;;;;28.10;54.00;;;;;;5071914;28;19912;-18
2023/05/07 10:12:40;;;;;;;;;;;27.80;54.30;;;;;;5070187;28;19913;-17
2023/05/07 10:15:12;;;;;;;;;;;27.50;54.40;;;;;;5070984;28;20356;-14
2023/05/07 10:17:38;;;;;;;;;;;27.30;54.70;;;;;;5071670;28;19916;-17
2023/05/07 10:20:08;;;;;;;;;;;27.10;55.20;;;;;;5053701;28;19913;-14
2023/05/07 10:22:43;;;;;;;;;;;27.00;55.30;;;;;;5071092;28;20010;-16
2023/05/07 10:25:14;;;;;;;;;;;26.90;55.50;;;;;;5070553;28;19917;-16
2023/05/07 10:27:40;;;;;;;;;;;26.70;55.80;;;;;;5054070;28;20043;-17
2023/05/07 10:30:08;;;;;;;;;;;26.60;55.90;;;;;;5072246;28;20171;-16
2023/05/07 10:32:48;;;;;;;;;;;26.40;56.30;;;;;;5070594;28;19936;-17
2023/05/07 10:35:19;;;;;;;;;;;26.40;56.70;;;;;;5051999;28;19915;-17
2023/05/07 10:37:44;;;;;;;;;;;26.20;56.60;;;;;;5071610;28;19990;-16
2023/05/07 10:40:11;;;;;;;;;;;26.10;57.10;;;;;;5070822;28;20097;-15
2023/05/07 10:42:36;;;;;;;;;;;26.00;57.50;;;;;;5053264;28;20189;-15
2023/05/07 10:45:15;;;;;;;;;;;25.90;57.50;;;;;;5069595;28;20426;-16
2023/05/07 10:47:59;;;;;;;;;;;25.90;57.80;;;;;;5066904;28;19923;-18
2023/05/07 10:50:25;;;;;;;;;;;25.80;58.50;;;;;;5048329;28;19908;-15
2023/05/07 10:53:09;;;;;;;;;;;25.70;58.30;;;;;;5048570;28;19935;-15
2023/05/07 10:55:35;;;;;;;;;;;25.70;58.50;;;;;;5049532;28;19940;-18
2023/05/07 10:58:19;;;;;;;;;;;25.60;58.70;;;;;;5067866;28;19951;-17
2023/05/07 11:00:45;;;;;;;;;;;25.50;58.90;;;;;;5069639;28;20131;-16
2023/05/07 11:03:11;;;;;;;;;;;25.40;59.20;;;;;;5051852;28;20152;-17
2023/05/07 11:05:37;;;;;;;;;;;25.40;59.40;;;;;;5052489;28;19909;-18
2023/05/07 11:08:03;;;;;;;;;;;25.30;59.60;;;;;;5071301;28;19986;-15
2023/05/07 11:10:52;;;;;;;;;;;25.30;59.80;;;;;;5051700;28;20351;-30
2023/05/07 11:13:18;;;;;;;;;;;25.20;59.90;;;;;;5062618;28;19909;-17
2023/05/07 11:15:48;;;;;;;;;;;25.10;60.20;;;;;;5070977;28;19916;-17
2023/05/07 11:18:15;;;;;;;;;;;25.10;60.90;;;;;;5068950;28;20266;-18
2023/05/07 11:20:45;;;;;;;;;;;25.10;61.10;;;;;;5049980;28;19908;-18
2023/05/07 11:23:30;;;;;;;;;;;25.00;61.10;;;;;;5067918;28;19909;-18
2023/05/07 11:25:59;;;;;;;;;;;25.00;61.60;;;;;;5051942;28;20008;-18
2023/05/07 11:28:27;;;;;;;;;;;25.00;61.90;;;;;;5066638;28;19913;-17
2023/05/07 11:30:53;;;;;;;;;;;25.00;62.10;;;;;;5048301;28;20155;-15
2023/05/07 11:33:18;;;;;;;;;;;25.00;62.90;;;;;;5067820;28;20368;-16
2023/05/07 11:35:45;;;;;;;;;;;24.90;62.40;;;;;;5051123;28;20101;-16
2023/05/07 11:38:11;;;;;;;;;;;24.90;62.50;;;;;;5050921;28;19908;-17
2023/05/07 11:40:48;;;;;;;;;;;24.90;62.60;;;;;;5069560;28;19909;-15
2023/05/07 11:43:13;;;;;;;;;;;24.90;62.70;;;;;;5070416;28;20012;-18
2023/05/07 11:45:39;;;;;;;;;;;24.80;63.40;;;;;;5071112;28;19999;-15
2023/05/07 11:48:05;;;;;;;;;;;24.80;63.70;;;;;;5052123;28;19921;-16
2023/05/07 11:50:30;;;;;;;;;;;24.80;63.70;;;;;;5071643;28;19923;-15
2023/05/07 11:52:56;;;;;;;;;;;24.80;64.00;;;;;;5070871;28;19908;-15
2023/05/07 11:55:24;;;;;;;;;;;24.70;63.90;;;;;;5052369;28;19909;-16
2023/05/07 11:57:50;;;;;;;;;;;24.70;63.80;;;;;;5052662;28;20026;-17
2023/05/07 12:00:16;;;;;;;;;;;24.70;63.90;;;;;;5069004;28;19974;-18
2023/05/07 12:02:42;;;;;;;;;;;24.70;64.00;;;;;;5068478;28;19915;-17
2023/05/07 12:05:08;;;;;;;;;;;24.70;65.10;;;;;;5050886;28;20061;-18
2023/05/07 12:07:34;;;;;;;;;;;24.70;64.20;;;;;;5070411;28;19913;-17
2023/05/07 12:10:03;;;;;;;;;;;24.70;64.20;;;;;;5068004;28;19920;-16
2023/05/07 12:12:29;;;;;;;;;;;24.70;64.30;;;;;;5069263;28;19912;-18
2023/05/07 12:14:55;;;;;;;;;;;24.80;64.30;;;;;;5068336;28;19920;-17
2023/05/07 12:17:20;;;;;;;;;;;24.80;64.50;;;;;;5068358;28;19990;-18
2023/05/07 12:19:46;;;;;;;;;;;24.80;64.50;;;;;;5067790;28;20199;-18
2023/05/07 12:22:12;;;;;;;;;;;24.80;64.80;;;;;;5066621;28;19960;-17
2023/05/07 12:24:44;;;;;;;;;;;24.80;64.90;;;;;;5065391;28;19909;-17
2023/05/07 12:27:10;;;;;;;;;;;24.70;64.80;;;;;;5065619;28;19912;-17
2023/05/07 12:29:38;;;;;;;;;;;24.70;64.80;;;;;;5067145;28;19958;-16
2023/05/07 12:32:05;;;;;;;;;;;24.70;65.10;;;;;;5067203;28;19919;-16
2023/05/07 12:34:31;;;;;;;;;;;24.70;65.40;;;;;;5049643;28;20075;-18
2023/05/07 12:36:57;;;;;;;;;;;24.60;65.70;;;;;;5065880;28;20364;-17
2023/05/07 12:39:23;;;;;;;;;;;24.60;65.80;;;;;;5068811;28;19908;-17
2023/05/07 12:41:53;;;;;;;;;;;24.60;65.80;;;;;;5048922;28;20274;-16
2023/05/07 12:44:18;;;;;;;;;;;24.60;65.80;;;;;;5052007;28;19909;-18
2023/05/07 12:46:46;;;;;;;;;;;24.60;65.70;;;;;;5070919;28;19909;-17
2023/05/07 12:49:12;;;;;;;;;;;24.60;65.90;;;;;;5050445;28;19962;-17
2023/05/07 12:51:37;;;;;;;;;;;24.60;66.30;;;;;;5067496;28;20343;-15
2023/05/07 12:54:03;;;;;;;;;;;24.60;66.30;;;;;;5049916;28;19908;-15
2023/05/07 12:56:30;;;;;;;;;;;24.60;66.70;;;;;;5048266;28;20104;-14
2023/05/07 12:58:57;;;;;;;;;;;24.50;66.50;;;;;;5050174;28;19908;-17
2023/05/07 13:01:28;;;;;;;;;;;24.50;66.30;;;;;;5048676;28;20022;-17
2023/05/07 13:04:31;;;;;;;;;;;24.50;66.40;;;;;;5075879;28;19965;-17
2023/05/07 13:06:59;;;;;;;;;;;24.50;66.60;;;;;;5074928;28;20031;-15
2023/05/07 13:09:25;;;;;;;;;;;24.50;66.80;;;;;;5074741;28;20373;-15
2023/05/07 13:11:50;;;;;;;;;;;24.40;67.00;;;;;;5075501;28;20046;-15
2023/05/07 13:14:16;;;;;;;;;;;24.40;67.00;;;;;;5076081;28;19908;-14
2023/05/07 13:16:42;;;;;;;;;;;24.40;67.10;;;;;;5083118;28;19920;-17
2023/05/07 13:19:07;;;;;;;;;;;24.40;67.20;;;;;;5076266;28;19931;-14
2023/05/07 13:21:33;;;;;;;;;;;24.40;67.30;;;;;;5087344;28;20301;-14
2023/05/07 13:24:00;;;;;;;;;;;24.40;67.50;;;;;;5087622;28;19912;-14
2023/05/07 13:26:25;;;;;;;;;;;24.30;67.50;;;;;;5076097;28;19910;-17
2023/05/07 13:28:52;;;;;;;;;;;24.30;67.70;;;;;;5092217;28;19922;-16
2023/05/07 13:31:17;;;;;;;;;;;24.20;68.00;;;;;;5092753;28;20232;-15
2023/05/07 13:33:44;;;;;;;;;;;24.20;68.20;;;;;;5076734;28;20278;-14
2023/05/07 13:36:15;;;;;;;;;;;24.20;68.30;;;;;;5091187;28;19981;-13
2023/05/07 13:38:41;;;;;;;;;;;24.20;68.80;;;;;;5090930;28;20448;-19
2023/05/07 13:41:06;;;;;;;;;;;24.10;68.90;;;;;;5077226;28;19926;-16
2023/05/07 13:43:34;;;;;;;;;;;24.10;68.90;;;;;;5083856;28;19985;-15
2023/05/07 13:46:00;;;;;;;;;;;24.10;69.10;;;;;;5096326;28;19908;-14
2023/05/07 13:48:25;;;;;;;;;;;24.00;69.20;;;;;;5094524;28;20379;-14
2023/05/07 13:50:51;;;;;;;;;;;24.00;69.50;;;;;;5094129;28;19973;-18
2023/05/07 13:53:18;;;;;;;;;;;24.00;69.50;;;;;;5091585;28;19919;-18
2023/05/07 13:55:44;;;;;;;;;;;24.00;69.60;;;;;;5077358;28;19908;-15
2023/05/07 13:58:09;;;;;;;;;;;24.00;69.60;;;;;;5095381;28;20002;-16
2023/05/07 14:00:38;;;;;;;;;;;24.00;69.60;;;;;;5095541;28;20007;-13
2023/05/07 14:03:04;;;;;;;;;;;24.00;69.80;;;;;;5095564;28;19908;-15
2023/05/07 14:05:30;;;;;;;;;;;24.00;69.70;;;;;;5095972;28;19912;-17
2023/05/07 14:07:57;;;;;;;;;;;24.00;69.70;;;;;;5094213;28;19969;-14
2023/05/07 14:10:22;;;;;;;;;;;24.00;70.00;;;;;;5094839;28;20278;-15
2023/05/07 14:12:48;;;;;;;;;;;24.00;70.10;;;;;;5095002;28;19998;-17